Time;durP1;ratioP1;P1;durP2;ratioP2;P2;SDS_P1;SDS_P2;PMS_P1;PMS_P2;Temp;Humidity;BMP_temperature;BMP_pressure;BME280_temperature;BME280_humidity;BME280_pressure;Samples;Min_cycle;Max_cycle;Signal;HPM_P1;HPM_P2
2021/12/15 00:00:42;;;;;;;44.00;26.52;;;;;;;8.09;97.94;102766.56;5049949;28;20029;-81
2021/12/15 00:03:08;;;;;;;43.00;26.38;;;;;;;8.08;98.14;102770.16;5042383;28;20051;-81
2021/12/15 00:05:34;;;;;;;41.47;26.98;;;;;;;8.08;98.06;102761.25;5038523;28;20036;-80
2021/12/15 00:08:01;;;;;;;47.28;28.48;;;;;;;8.05;98.24;102768.47;5044924;28;20037;-80
2021/12/15 00:10:28;;;;;;;44.35;26.60;;;;;;;8.05;98.25;102763.09;5043151;28;20031;-81
2021/12/15 00:12:55;;;;;;;45.22;27.15;;;;;;;8.05;98.49;102765.78;5051144;28;20115;-81
2021/12/15 00:15:22;;;;;;;43.15;25.42;;;;;;;8.05;98.43;102757.75;5047473;28;20575;-81
2021/12/15 00:17:49;;;;;;;43.05;27.70;;;;;;;8.05;98.50;102748.81;5054091;28;20077;-81
2021/12/15 00:20:15;;;;;;;42.17;26.80;;;;;;;8.04;98.42;102753.31;5046179;28;20025;-81
2021/12/15 00:22:44;;;;;;;46.42;27.80;;;;;;;8.04;98.46;102747.97;5043288;28;20139;-81
2021/12/15 00:25:11;;;;;;;40.15;25.33;;;;;;;8.03;98.46;102756.91;5047571;28;20036;-81
2021/12/15 00:27:37;;;;;;;40.80;25.88;;;;;;;8.05;98.43;102755.06;5053743;28;20052;-80
2021/12/15 00:30:06;;;;;;;44.75;27.33;;;;;;;8.04;98.29;102750.63;5051593;28;20610;-80
2021/12/15 00:32:31;;;;;;;43.40;27.23;;;;;;;8.04;98.26;102747.97;5059505;28;20107;-80
2021/12/15 00:34:57;;;;;;;43.70;26.08;;;;;;;8.03;98.30;102754.22;5050728;28;20032;-80
2021/12/15 00:37:22;;;;;;;44.55;27.80;;;;;;;8.04;98.05;102750.63;5062207;28;20060;-80
2021/12/15 00:39:48;;;;;;;42.78;27.10;;;;;;;8.05;98.33;102755.06;5048537;28;20031;-80
2021/12/15 00:42:15;;;;;;;40.55;25.20;;;;;;;8.04;98.19;102752.44;5045500;28;20060;-80
2021/12/15 00:44:40;;;;;;;39.42;25.20;;;;;;;8.04;98.27;102753.31;5050809;28;20035;-80
2021/12/15 00:47:07;;;;;;;39.85;25.42;;;;;;;8.05;98.40;102747.03;5053063;28;20024;-80
2021/12/15 00:49:33;;;;;;;45.40;25.92;;;;;;;8.04;98.28;102745.28;5061051;28;20047;-80
2021/12/15 00:51:58;;;;;;;41.83;25.55;;;;;;;8.03;98.26;102746.19;5053965;28;20112;-80
2021/12/15 00:54:24;;;;;;;39.40;25.67;;;;;;;8.03;98.19;102743.53;5045068;28;20059;-80
2021/12/15 00:56:54;;;;;;;41.55;25.23;;;;;;;8.02;98.31;102746.25;5043627;28;20487;-80
2021/12/15 00:59:20;;;;;;;;;;;;;;;8.09;97.86;102749.63;5053785;28;20104;-80
2021/12/15 01:01:47;;;;;;;45.63;26.02;;;;;;;8.03;98.18;102740.84;5057102;28;20012;-80
2021/12/15 01:04:15;;;;;;;43.67;27.33;;;;;;;8.03;98.33;102742.66;5040659;28;20401;-80
2021/12/15 01:06:42;;;;;;;39.45;24.92;;;;;;;8.02;98.29;102747.13;5043716;28;20021;-80
2021/12/15 01:09:12;;;;;;;40.92;24.75;;;;;;;8.01;98.56;102742.69;5060297;28;20029;-80
2021/12/15 01:19:52;;;;;;;38.88;23.13;;;;;;;8.03;98.21;102759.59;5045281;28;20075;-80
2021/12/15 01:22:23;;;;;;;41.88;27.05;;;;;;;8.04;98.37;102758.66;5046275;28;20413;-80
2021/12/15 01:24:49;;;;;;;43.20;26.52;;;;;;;8.03;98.25;102762.25;5045141;28;20029;-80
2021/12/15 01:27:15;;;;;;;43.75;25.60;;;;;;;8.02;98.21;102759.63;5044672;28;20441;-80
2021/12/15 01:29:40;;;;;;;45.30;26.45;;;;;;;8.03;98.29;102756.03;5052072;28;20145;-81
2021/12/15 01:32:06;;;;;;;40.63;25.42;;;;;;;8.04;98.05;102756.00;5045653;28;20408;-80
2021/12/15 01:34:31;;;;;;;40.80;24.38;;;;;;;8.04;98.24;102752.44;5047842;28;20064;-81
2021/12/15 01:36:57;;;;;;;45.90;27.48;;;;;;;8.04;98.29;102755.13;5044878;28;20444;-81
2021/12/15 01:39:23;;;;;;;42.03;27.10;;;;;;;8.02;98.30;102747.13;5046181;28;20040;-80
2021/12/15 01:41:49;;;;;;;44.92;26.58;;;;;;;8.02;98.12;102752.50;5049774;28;20385;-81
2021/12/15 01:46:55;;;;;;;39.88;24.42;;;;;;;8.03;98.18;102764.94;5057551;28;20033;-81
2021/12/15 01:49:28;;;;;;;48.42;25.27;;;;;;;8.02;98.31;102757.84;5044276;28;20029;-81
2021/12/15 01:51:56;;;;;;;41.75;25.83;;;;;;;8.01;98.42;102756.09;5044531;28;20032;-81
2021/12/15 01:54:23;;;;;;;44.80;26.42;;;;;;;8.01;98.30;102765.94;5045793;28;20031;-81
2021/12/15 01:56:49;;;;;;;41.63;25.27;;;;;;;8.01;98.26;102753.41;5050152;28;20125;-81
2021/12/15 01:59:17;;;;;;;42.13;26.05;;;;;;;8.01;98.43;102761.44;5055718;28;20087;-81
2021/12/15 02:01:42;;;;;;;41.17;24.52;;;;;;;8.02;98.37;102765.88;5055349;28;20028;-79
2021/12/15 02:04:08;;;;;;;47.03;27.52;;;;;;;8.02;98.29;102765.88;5038339;28;20687;-79
2021/12/15 02:06:34;;;;;;;43.22;26.70;;;;;;;8.03;98.38;102772.09;5046769;28;20029;-79
2021/12/15 02:09:00;;;;;;;36.58;24.02;;;;;;;8.03;98.43;102772.97;5049459;28;20476;-79
2021/12/15 02:11:26;;;;;;;42.83;26.13;;;;;;;8.01;98.17;102777.50;5050892;28;20444;-79
2021/12/15 02:13:51;;;;;;;43.88;26.65;;;;;;;8.05;98.27;102783.63;5052795;28;20493;-79
2021/12/15 02:16:17;;;;;;;43.60;25.95;;;;;;;8.07;98.25;102776.44;5044365;28;20063;-79
2021/12/15 02:18:44;;;;;;;42.85;26.58;;;;;;;8.05;98.19;102784.53;5042933;28;20037;-79
2021/12/15 02:21:19;;;;;;;47.38;26.27;;;;;;;8.07;98.12;102784.47;5049539;28;20171;-80
2021/12/15 02:23:51;;;;;;;46.80;26.60;;;;;;;8.05;98.08;102780.97;5043779;28;20041;-80
2021/12/15 02:26:33;;;;;;;42.42;26.65;;;;;;;8.09;98.23;102781.75;5045832;28;20124;-80
2021/12/15 02:29:01;;;;;;;45.38;27.95;;;;;;;8.07;98.07;102781.81;5048095;28;20536;-79
2021/12/15 02:31:54;;;;;;;48.22;26.95;;;;;;;8.06;98.20;102780.03;5052899;28;20098;-79
2021/12/15 02:39:36;;;;;;;45.55;25.45;;;;;;;8.07;98.02;102776.44;5048451;28;20036;-79
2021/12/15 02:42:02;;;;;;;44.92;27.02;;;;;;;8.07;98.07;102776.44;5054262;28;20389;-79
2021/12/15 02:44:27;;;;;;;41.92;25.60;;;;;;;8.09;98.01;102773.72;5052972;28;20017;-79
2021/12/15 02:46:54;;;;;;;47.70;27.50;;;;;;;8.10;97.80;102779.03;5053473;28;20051;-79
2021/12/15 02:49:22;;;;;;;45.75;26.05;;;;;;;8.08;97.94;102774.63;5045158;28;20029;-79
2021/12/15 02:51:51;;;;;;;42.13;24.65;;;;;;;8.08;98.19;102771.97;5049124;28;20120;-79
2021/12/15 02:54:18;;;;;;;42.83;26.13;;;;;;;8.09;98.06;102781.75;5041537;28;20029;-79
2021/12/15 02:56:45;;;;;;;46.58;26.30;;;;;;;8.09;97.94;102779.94;5049503;28;20033;-79
2021/12/15 02:59:13;;;;;;;41.50;25.50;;;;;;;8.09;98.09;102779.94;5062939;28;20492;-79
2021/12/15 03:02:09;;;;;;;43.70;25.65;;;;;;;8.10;97.72;102780.84;5046169;28;20535;-79
2021/12/15 03:04:43;;;;;;;44.17;25.08;;;;;;;8.10;98.14;102770.13;5045710;28;20540;-79
2021/12/15 03:07:53;;;;;;;45.80;27.17;;;;;;;8.10;98.06;102772.81;5050048;28;20052;-79
2021/12/15 03:15:36;;;;;;;44.88;26.90;;;;;;;8.08;98.33;102778.19;5047319;28;20121;-79
2021/12/15 03:18:17;;;;;;;44.80;24.42;;;;;;;8.09;98.11;102771.91;5043848;28;20108;-79
2021/12/15 03:21:05;;;;;;;46.00;25.75;;;;;;;8.11;98.16;102763.81;5046081;28;20424;-80
2021/12/15 03:23:43;;;;;;;43.97;25.27;;;;;;;8.10;98.12;102767.44;5044642;28;20049;-80
2021/12/15 03:26:10;;;;;;;38.38;23.40;;;;;;;8.11;97.93;102771.84;5063898;28;20432;-79
2021/12/15 03:39:24;;;;;;;42.88;24.20;;;;;;;8.13;98.14;102768.22;5047178;28;20029;-79
2021/12/15 03:41:58;;;;;;;44.42;25.25;;;;;;;8.14;98.00;102778.00;5059312;28;20469;-79
2021/12/15 03:44:25;;;;;;;43.92;24.00;;;;;;;8.13;98.19;102773.56;5044330;28;20024;-79
2021/12/15 03:46:50;;;;;;;39.25;23.40;;;;;;;8.12;98.18;102782.53;5044849;28;20022;-79
2021/12/15 03:49:16;;;;;;;42.03;24.30;;;;;;;8.15;98.17;102776.19;5040818;28;20017;-79
2021/12/15 03:51:42;;;;;;;38.75;22.67;;;;;;;8.14;98.09;102780.69;5046969;28;20109;-79
2021/12/15 03:54:07;;;;;;;39.30;24.00;;;;;;;8.14;98.17;102780.69;5044580;28;20037;-79
2021/12/15 03:56:35;;;;;;;40.85;23.63;;;;;;;8.15;98.20;102779.75;5048911;28;20415;-79
2021/12/15 03:59:02;;;;;;;40.65;23.33;;;;;;;8.15;98.17;102786.91;5056439;28;20048;-79
2021/12/15 04:01:27;;;;;;;40.28;22.35;;;;;;;8.15;98.21;102778.88;5057448;28;20037;-79
2021/12/15 04:03:54;;;;;;;39.60;23.05;;;;;;;8.15;98.06;102782.41;5044289;28;20029;-79
2021/12/15 04:06:28;;;;;;;38.15;23.50;;;;;;;8.15;98.30;102792.25;5043773;28;20040;-79
2021/12/15 04:08:55;;;;;;;38.40;21.70;;;;;;;8.16;98.13;102794.88;5051989;28;20032;-79
2021/12/15 04:11:22;;;;;;;38.15;22.50;;;;;;;8.16;98.05;102796.72;5055110;28;20056;-79
2021/12/15 04:13:48;;;;;;;38.40;22.70;;;;;;;8.17;98.18;102793.06;5057404;28;20048;-79
2021/12/15 04:16:41;;;;;;;38.03;22.35;;;;;;;8.16;97.87;102796.72;5044933;28;20056;-79
2021/12/15 04:19:22;;;;;;;41.13;22.90;;;;;;;8.17;97.98;102795.75;5042571;28;20071;-79
2021/12/15 04:21:48;;;;;;;37.13;21.48;;;;;;;8.17;97.84;102793.06;5043925;28;20072;-80
2021/12/15 04:24:15;;;;;;;37.67;21.25;;;;;;;8.15;97.93;102792.25;5048542;28;20131;-80
2021/12/15 04:26:42;;;;;;;39.05;22.60;;;;;;;8.18;97.94;102797.53;5044749;28;20114;-80
2021/12/15 04:29:07;;;;;;;38.53;22.27;;;;;;;8.18;97.90;102802.88;5052605;28;20556;-80
2021/12/15 04:31:39;;;;;;;37.30;21.75;;;;;;;8.18;98.06;102797.53;5059438;28;20140;-79
2021/12/15 04:34:07;;;;;;;38.30;23.17;;;;;;;8.18;97.98;102802.88;5043121;28;20037;-79
2021/12/15 04:36:40;;;;;;;37.35;21.00;;;;;;;8.18;97.98;102801.06;5044562;28;20120;-79
2021/12/15 04:39:08;;;;;;;35.67;22.00;;;;;;;8.17;97.88;102806.47;5045686;28;20068;-79
2021/12/15 04:41:34;;;;;;;37.30;21.83;;;;;;;8.19;97.91;102810.84;5056044;28;20025;-79
2021/12/15 04:44:01;;;;;;;39.30;23.30;;;;;;;8.18;98.11;102805.56;5047910;28;20025;-79
2021/12/15 04:46:32;;;;;;;35.97;20.17;;;;;;;8.18;98.03;102808.22;5054821;28;20114;-79
2021/12/15 04:48:58;;;;;;;38.67;23.55;;;;;;;8.18;97.93;102802.88;5056049;28;20029;-79
2021/12/15 04:51:24;;;;;;;40.15;22.08;;;;;;;8.19;97.88;102812.69;5053522;28;20027;-79
2021/12/15 04:53:52;;;;;;;40.47;22.17;;;;;;;8.18;97.85;102816.28;5042423;28;20027;-79
2021/12/15 04:56:18;;;;;;;37.67;21.17;;;;;;;8.18;97.85;102816.28;5061919;28;20473;-79
2021/12/15 04:58:44;;;;;;;37.22;20.48;;;;;;;8.18;97.81;102816.28;5043977;28;20393;-79
2021/12/15 05:01:11;;;;;;;39.08;21.23;;;;;;;8.17;97.82;102815.41;5067237;28;20024;-79
2021/12/15 05:03:38;;;;;;;35.45;22.13;;;;;;;8.17;97.91;102819.88;5036499;28;20029;-79
2021/12/15 05:06:05;;;;;;;38.40;21.38;;;;;;;8.19;97.80;102818.03;5045223;28;20029;-79
2021/12/15 05:08:30;;;;;;;39.17;21.33;;;;;;;8.17;97.72;102817.19;5044821;28;20017;-79
2021/12/15 05:10:57;;;;;;;38.42;21.80;;;;;;;8.19;97.66;102812.69;5055947;28;20024;-79
2021/12/15 05:13:23;;;;;;;38.30;21.50;;;;;;;8.18;97.73;102816.28;5050127;28;20025;-79
2021/12/15 05:15:49;;;;;;;37.92;21.55;;;;;;;8.20;97.76;102825.16;5038604;28;20039;-79
2021/12/15 05:18:14;;;;;;;37.22;20.80;;;;;;;8.17;97.63;102820.75;5038525;28;20492;-79
2021/12/15 05:20:45;;;;;;;36.47;19.67;;;;;;;8.19;97.70;102818.03;5047517;28;20028;-80
2021/12/15 05:23:13;;;;;;;35.17;19.77;;;;;;;8.18;97.88;102825.16;5042508;28;20056;-79
2021/12/15 05:25:38;;;;;;;35.38;19.83;;;;;;;8.17;97.82;102831.47;5047018;28;20488;-79
2021/12/15 05:28:04;;;;;;;38.97;21.58;;;;;;;8.20;97.62;102833.19;5042163;28;20107;-79
2021/12/15 05:30:29;;;;;;;34.72;19.77;;;;;;;8.18;97.90;102835.03;5042617;28;20070;-79
2021/12/15 05:32:54;;;;;;;36.53;19.95;;;;;;;8.18;97.72;102826.97;5038439;28;20029;-79
2021/12/15 05:35:23;;;;;;;36.40;18.95;;;;;;;8.20;97.87;102833.19;5044571;28;20021;-79
2021/12/15 05:37:50;;;;;;;39.72;21.23;;;;;;;8.18;97.74;102835.03;5046821;28;20177;-79
2021/12/15 05:40:16;;;;;;;36.08;20.02;;;;;;;8.18;98.07;102830.53;5035602;28;20032;-79
2021/12/15 05:42:42;;;;;;;40.08;22.20;;;;;;;8.19;97.59;102837.66;5046289;28;20405;-79
2021/12/15 05:45:08;;;;;;;38.50;21.23;;;;;;;8.18;97.80;102837.69;5040026;28;20044;-79
2021/12/15 05:47:34;;;;;;;37.63;20.15;;;;;;;8.17;97.94;102836.84;5041583;28;20025;-79
2021/12/15 05:49:59;;;;;;;36.83;20.50;;;;;;;8.18;97.78;102843.06;5048513;28;20119;-79
2021/12/15 05:52:30;;;;;;;39.10;22.55;;;;;;;8.17;97.77;102842.19;5040887;28;20108;-79
2021/12/15 05:54:57;;;;;;;36.92;21.75;;;;;;;8.17;97.95;102830.56;5056808;28;20036;-79
2021/12/15 05:57:23;;;;;;;37.63;21.38;;;;;;;8.17;97.91;102836.84;5042231;28;20060;-79
2021/12/15 05:59:48;;;;;;;35.03;20.52;;;;;;;8.15;98.03;102827.94;5049831;28;20029;-79
2021/12/15 06:02:13;;;;;;;38.13;19.85;;;;;;;8.16;97.97;102844.91;5039140;28;20033;-79
2021/12/15 06:04:39;;;;;;;34.97;19.15;;;;;;;8.16;97.89;102837.75;5045513;28;20033;-79
2021/12/15 06:07:05;;;;;;;34.15;20.30;;;;;;;8.16;98.20;102836.88;5046924;28;20358;-79
2021/12/15 06:09:30;;;;;;;39.33;22.00;;;;;;;8.15;97.95;102840.47;5048901;28;20823;-79
2021/12/15 06:11:56;;;;;;;40.95;21.48;;;;;;;8.15;98.04;102843.16;5046757;28;20393;-79
2021/12/15 06:14:24;;;;;;;43.25;23.05;;;;;;;8.16;98.05;102837.75;5049750;28;20039;-79
2021/12/15 06:16:54;;;;;;;39.20;20.42;;;;;;;8.16;97.96;102842.25;5044156;28;20033;-79
2021/12/15 06:19:20;;;;;;;39.85;22.85;;;;;;;8.15;98.21;102844.03;5066155;28;20028;-79
2021/12/15 06:21:45;;;;;;;39.40;21.90;;;;;;;8.16;98.23;102844.91;5065455;28;20121;-79
2021/12/15 06:24:11;;;;;;;43.65;22.70;;;;;;;8.18;98.03;102840.38;5049486;28;20030;-79
2021/12/15 06:26:36;;;;;;;41.47;23.10;;;;;;;8.18;98.03;102851.09;5045135;28;20033;-79
2021/12/15 06:29:02;;;;;;;39.83;21.42;;;;;;;8.17;98.08;102849.31;5051503;28;20403;-79
2021/12/15 06:31:28;;;;;;;40.85;23.95;;;;;;;8.18;97.83;102856.44;5058166;28;20036;-79
2021/12/15 06:33:53;;;;;;;39.00;24.02;;;;;;;8.18;98.13;102859.13;5051565;28;20064;-79
2021/12/15 06:36:21;;;;;;;42.35;24.17;;;;;;;8.18;98.10;102851.94;5044350;28;20036;-79
2021/12/15 06:38:50;;;;;;;38.75;22.15;;;;;;;8.18;98.01;102856.44;5046957;28;20101;-79
2021/12/15 06:41:15;;;;;;;41.08;24.27;;;;;;;8.19;98.10;102866.25;5047637;28;20025;-79
2021/12/15 06:43:48;;;;;;;44.92;24.13;;;;;;;8.19;98.15;102860.88;5046541;28;20363;-79
2021/12/15 06:59:54;;;;;;;42.03;22.50;;;;;;;8.21;98.19;102875.09;5050390;28;20095;-79
2021/12/15 07:02:20;;;;;;;45.13;24.88;;;;;;;8.20;98.13;102868.88;5040862;28;20076;-79
2021/12/15 07:04:45;;;;;;;43.30;23.95;;;;;;;8.19;98.32;102867.09;5049358;28;20408;-79
2021/12/15 07:07:10;;;;;;;41.22;23.67;;;;;;;8.19;98.54;102871.59;5047019;28;20021;-79
2021/12/15 07:09:36;;;;;;;45.10;25.05;;;;;;;8.19;98.17;102869.78;5043769;28;20031;-79
2021/12/15 07:12:04;;;;;;;40.78;23.02;;;;;;;8.19;98.41;102882.31;5044993;28;20028;-79
2021/12/15 07:14:30;;;;;;;43.67;24.02;;;;;;;8.20;98.55;102882.28;5048724;28;20029;-79
2021/12/15 07:16:57;;;;;;;40.20;24.25;;;;;;;8.20;98.59;102884.09;5041976;28;20223;-79
2021/12/15 07:22:29;;;;;;;48.33;25.73;;;;;;;8.21;98.48;102886.72;5044396;28;20060;-79
2021/12/15 07:24:54;;;;;;;42.15;22.65;;;;;;;8.22;98.41;102882.22;5044056;28;20036;-79
2021/12/15 07:27:19;;;;;;;41.42;24.20;;;;;;;8.22;98.53;102882.22;5046826;28;20032;-79
2021/12/15 07:29:45;;;;;;;47.67;24.67;;;;;;;8.21;98.51;102893.84;5054780;28;20046;-79
2021/12/15 07:32:10;;;;;;;42.78;24.42;;;;;;;8.21;98.42;102891.16;5054495;28;20071;-79
2021/12/15 07:34:35;;;;;;;46.58;24.77;;;;;;;8.21;98.62;102901.88;5044029;28;20040;-79
2021/12/15 07:37:01;;;;;;;40.05;24.83;;;;;;;8.20;98.67;102890.31;5043282;28;20033;-79
2021/12/15 07:39:26;;;;;;;43.10;25.48;;;;;;;8.21;98.69;102897.44;5057953;28;20044;-79
2021/12/15 07:41:55;;;;;;;51.50;25.42;;;;;;;8.20;98.72;102897.47;5069257;28;20026;-79
2021/12/15 07:44:21;;;;;;;44.88;24.77;;;;;;;8.22;98.81;102884.91;5037545;28;20025;-79
2021/12/15 07:46:51;;;;;;;47.80;25.98;;;;;;;8.21;98.57;102896.53;5033562;28;20033;-79
2021/12/15 07:49:18;;;;;;;46.40;25.83;;;;;;;8.22;98.64;102903.66;5041489;28;20094;-79
2021/12/15 07:51:45;;;;;;;46.55;27.10;;;;;;;8.22;98.75;102898.28;5037789;28;20029;-79
2021/12/15 07:54:11;;;;;;;47.25;25.38;;;;;;;8.22;98.78;102900.97;5047700;28;20028;-79
2021/12/15 07:56:36;;;;;;;47.20;26.67;;;;;;;8.23;98.74;102900.06;5047305;28;20109;-79
2021/12/15 07:59:02;;;;;;;46.60;26.02;;;;;;;8.22;98.85;102898.28;5048599;28;20044;-79
2021/12/15 08:01:28;;;;;;;52.00;27.10;;;;;;;8.23;98.71;102908.97;5049938;28;20040;-79
2021/12/15 08:03:55;;;;;;;49.10;25.48;;;;;;;8.22;98.84;102901.84;5047095;28;20142;-79
2021/12/15 08:06:26;;;;;;;50.28;27.30;;;;;;;8.24;98.80;102904.47;5046782;28;20361;-79
2021/12/15 08:08:52;;;;;;;55.58;26.13;;;;;;;8.24;98.88;102899.09;5067713;28;20028;-79
2021/12/15 08:11:18;;;;;;;49.17;25.92;;;;;;;8.24;98.86;102909.81;5067303;28;20023;-79
2021/12/15 08:13:43;;;;;;;49.10;28.60;;;;;;;8.23;98.96;102918.81;5046225;28;20028;-79
2021/12/15 08:16:08;;;;;;;47.83;28.27;;;;;;;8.23;99.12;102911.63;5038844;28;20025;-79
2021/12/15 08:18:34;;;;;;;51.50;27.48;;;;;;;8.25;98.72;102910.72;5046760;28;20103;-79
2021/12/15 08:21:03;;;;;;;48.78;26.90;;;;;;;8.27;99.10;102912.41;5047108;28;20064;-80
2021/12/15 08:23:29;;;;;;;50.13;28.33;;;;;;;8.28;98.70;102916.84;5047281;28;20052;-80
2021/12/15 08:25:54;;;;;;;45.92;27.00;;;;;;;8.28;98.83;102914.16;5047087;28;20044;-80
2021/12/15 08:28:20;;;;;;;45.85;28.35;;;;;;;8.29;98.77;102921.28;5066513;28;20099;-80
2021/12/15 08:30:47;;;;;;;44.92;27.80;;;;;;;8.30;98.77;102914.13;5045961;28;20072;-80
2021/12/15 08:33:18;;;;;;;45.40;26.73;;;;;;;8.31;98.86;102921.25;5047196;28;20412;-79
2021/12/15 08:35:51;;;;;;;46.53;26.65;;;;;;;8.32;98.89;102918.50;5049035;28;20035;-79
2021/12/15 08:38:17;;;;;;;48.15;27.45;;;;;;;8.33;98.63;102917.59;5048077;28;20029;-79
2021/12/15 08:40:44;;;;;;;53.72;29.25;;;;;;;8.33;98.64;102922.97;5060313;28;20029;-79
2021/12/15 08:43:11;;;;;;;46.17;27.23;;;;;;;8.33;98.55;102912.25;5047726;28;20074;-79
2021/12/15 08:45:39;;;;;;;49.17;29.45;;;;;;;8.32;98.55;102915.84;5047340;28;20362;-79
2021/12/15 08:48:08;;;;;;;47.65;27.42;;;;;;;8.34;98.75;102915.78;5048753;28;20501;-79
2021/12/15 08:50:36;;;;;;;46.17;29.63;;;;;;;8.35;98.54;102914.88;5044605;28;20609;-79
2021/12/15 08:53:05;;;;;;;45.85;26.05;;;;;;;8.37;98.49;102923.72;5046429;28;20469;-79
2021/12/15 08:55:31;;;;;;;46.63;28.23;;;;;;;8.37;98.55;102927.28;5066737;28;20029;-79
2021/12/15 08:57:59;;;;;;;50.28;28.33;;;;;;;8.38;98.70;102920.13;5067881;28;20451;-79
2021/12/15 09:00:26;;;;;;;46.90;28.58;;;;;;;8.38;98.49;102931.72;5060089;28;20032;-79
2021/12/15 09:02:54;;;;;;;52.33;28.10;;;;;;;8.40;98.37;102929.88;5048571;28;20056;-79
2021/12/15 09:05:22;;;;;;;44.65;26.73;;;;;;;8.44;98.65;102935.16;5056829;28;20022;-79
2021/12/15 09:07:50;;;;;;;48.25;26.73;;;;;;;8.44;98.54;102937.84;5047014;28;20021;-79
2021/12/15 09:10:16;;;;;;;48.63;27.40;;;;;;;8.46;98.37;102928.81;5046241;28;20025;-79
2021/12/15 09:12:41;;;;;;;45.80;26.92;;;;;;;8.48;98.51;102929.69;5046875;28;20111;-79
2021/12/15 09:15:08;;;;;;;42.60;26.65;;;;;;;8.49;98.41;102930.53;5046492;28;20036;-79
2021/12/15 09:17:34;;;;;;;47.88;28.92;;;;;;;8.50;98.22;102941.22;5050696;28;20115;-79
2021/12/15 09:19:59;;;;;;;51.47;28.30;;;;;;;8.51;98.27;102942.13;5043932;28;20033;-79
2021/12/15 09:22:24;;;;;;;44.20;27.17;;;;;;;8.52;98.42;102935.81;5059204;28;20139;-80
2021/12/15 09:24:50;;;;;;;52.42;29.17;;;;;;;8.53;98.06;102946.47;5049263;28;20227;-80
2021/12/15 09:27:15;;;;;;;48.33;28.80;;;;;;;8.55;98.33;102950.00;5052678;28;20027;-79
2021/12/15 09:29:41;;;;;;;47.20;29.40;;;;;;;8.55;98.25;102944.66;5057684;28;20025;-79
2021/12/15 09:32:06;;;;;;;46.63;27.88;;;;;;;8.57;97.93;102955.31;5048263;28;20029;-79
2021/12/15 09:34:32;;;;;;;43.17;26.92;;;;;;;8.59;98.12;102961.50;5058642;28;20025;-79
2021/12/15 09:36:57;;;;;;;48.40;29.63;;;;;;;8.62;98.16;102964.06;5065729;28;20036;-79
2021/12/15 09:39:24;;;;;;;50.70;26.35;;;;;;;8.63;98.09;102963.16;5034580;28;20033;-79
2021/12/15 09:41:51;;;;;;;45.38;27.90;;;;;;;8.65;97.97;102960.44;5051779;28;20099;-79
2021/12/15 09:44:20;;;;;;;43.40;28.13;;;;;;;8.67;98.01;102963.97;5050438;28;20477;-79
2021/12/15 10:03:03;;;;;;;48.55;27.85;;;;;;;8.82;97.75;102965.28;5058881;28;20048;-79
2021/12/15 10:05:41;;;;;;;47.10;30.63;;;;;;;8.85;97.61;102973.22;5051290;28;20459;-79
2021/12/15 10:19:25;;;;;;;44.25;26.75;;;;;;;9.01;97.13;102960.19;5051542;28;20163;-79
2021/12/15 10:22:27;;;;;;;47.20;26.50;;;;;;;9.03;97.25;102961.88;5049915;28;20036;-80
2021/12/15 10:25:07;;;;;;;48.03;28.38;;;;;;;9.07;96.74;102960.84;5050264;28;20051;-80
2021/12/15 10:27:44;;;;;;;41.60;27.02;;;;;;;9.08;96.81;102965.28;5048289;28;20045;-80
2021/12/15 10:30:23;;;;;;;44.38;27.00;;;;;;;9.12;97.03;102975.91;5050931;28;20040;-80
2021/12/15 10:32:53;;;;;;;47.63;28.10;;;;;;;9.13;96.80;102969.63;5053397;28;20032;-80
2021/12/15 10:35:29;;;;;;;46.72;27.85;;;;;;;9.16;96.84;102974.88;5051970;28;20098;-79
2021/12/15 10:38:18;;;;;;;45.47;26.95;;;;;;;9.18;96.78;102975.72;5054198;28;20029;-79
2021/12/15 10:41:03;;;;;;;44.75;27.58;;;;;;;9.20;96.79;102963.13;5058402;28;20110;-79
2021/12/15 10:43:34;;;;;;;46.00;28.02;;;;;;;9.22;96.73;102966.63;5061605;28;20036;-79
2021/12/15 10:46:06;;;;;;;46.00;28.63;;;;;;;9.21;97.13;102964.88;5066540;28;20344;-79
2021/12/15 10:48:36;;;;;;;45.85;29.17;;;;;;;9.21;96.39;102970.22;5061920;28;20017;-79
2021/12/15 10:51:28;;;;;;;46.17;28.52;;;;;;;9.24;96.53;102971.03;5061709;28;20028;-80
2021/12/15 10:53:56;;;;;;;44.15;28.42;;;;;;;9.23;96.36;102971.06;5070976;28;20031;-80
2021/12/15 10:56:24;;;;;;;43.25;28.40;;;;;;;9.25;96.15;102972.78;5066187;28;20113;-80
2021/12/15 10:58:54;;;;;;;45.20;28.85;;;;;;;9.28;96.36;102982.53;5049604;28;20433;-80
2021/12/15 11:01:49;;;;;;;48.28;30.75;;;;;;;9.31;96.40;102971.69;5070066;28;20047;-80
2021/12/15 11:04:40;;;;;;;45.30;29.65;;;;;;;9.33;96.34;102980.56;5056433;28;20028;-79
2021/12/15 11:07:53;;;;;;;48.40;29.23;;;;;;;9.35;96.33;102972.47;5063531;28;20082;-79
2021/12/15 11:10:34;;;;;;;42.17;26.92;;;;;;;9.37;96.05;102974.19;5050157;28;20151;-79
2021/12/15 11:13:06;;;;;;;46.72;28.45;;;;;;;9.37;95.84;102970.59;5061166;28;20477;-79
2021/12/15 11:15:40;;;;;;;46.25;27.55;;;;;;;9.37;95.42;102971.50;5064053;28;20020;-79
2021/12/15 11:18:24;;;;;;;45.95;29.52;;;;;;;9.42;95.87;102977.56;5068992;28;20021;-79
2021/12/15 11:20:53;;;;;;;44.20;28.30;;;;;;;9.42;95.54;102972.19;5051336;28;20115;-80
2021/12/15 11:23:20;;;;;;;46.55;28.63;;;;;;;9.43;95.46;102968.59;5048973;28;20049;-80
2021/12/15 11:26:16;;;;;;;44.13;28.27;;;;;;;9.48;95.53;102959.50;5047575;28;20069;-80
2021/12/15 11:28:47;;;;;;;44.38;28.50;;;;;;;9.47;94.98;102965.81;5053485;28;20519;-80
2021/12/15 11:31:31;;;;;;;44.60;28.52;;;;;;;9.47;95.08;102966.66;5053778;28;20028;-80
2021/12/15 11:34:00;;;;;;;44.67;28.13;;;;;;;9.47;94.93;102963.97;5068576;28;20032;-80
2021/12/15 11:36:32;;;;;;;42.28;28.13;;;;;;;9.48;94.87;102964.88;5068197;28;20028;-80
2021/12/15 11:39:28;;;;;;;42.95;27.88;;;;;;;9.53;95.44;102963.78;5056326;28;20085;-80
2021/12/15 11:41:54;;;;;;;41.28;27.52;;;;;;;9.54;95.04;102961.97;5047746;28;20063;-80
2021/12/15 11:44:23;;;;;;;42.67;26.23;;;;;;;9.57;94.68;102961.88;5053066;28;20344;-80
2021/12/15 11:46:53;;;;;;;46.00;27.40;;;;;;;9.58;94.22;102960.94;5041413;28;20032;-79
2021/12/15 11:49:21;;;;;;;39.10;26.15;;;;;;;9.59;94.32;102954.63;5055348;28;20036;-79
2021/12/15 11:51:52;;;;;;;39.28;24.98;;;;;;;9.61;94.44;102958.16;5045393;28;20029;-79
2021/12/15 11:54:27;;;;;;;42.72;27.23;;;;;;;9.64;94.59;102967.91;5055648;28;20048;-79
2021/12/15 11:57:00;;;;;;;43.80;26.52;;;;;;;9.65;94.25;102964.28;5062127;28;20037;-79
2021/12/15 11:59:30;;;;;;;42.83;27.27;;;;;;;9.67;94.38;102955.22;5048113;28;20060;-79
2021/12/15 12:02:05;;;;;;;40.33;25.67;;;;;;;9.66;93.85;102956.16;5037702;28;20507;-79
2021/12/15 12:04:44;;;;;;;42.08;25.75;;;;;;;9.68;94.14;102957.00;5045914;28;20086;-79
2021/12/15 12:07:15;;;;;;;39.85;25.88;;;;;;;9.68;94.21;102959.69;5041748;28;20036;-79
2021/12/15 12:09:44;;;;;;;43.72;26.33;;;;;;;9.67;93.25;102952.56;5047409;28;20036;-79
2021/12/15 12:12:11;;;;;;;41.63;25.30;;;;;;;9.68;93.41;102948.94;5048187;28;20040;-79
2021/12/15 12:17:12;;;;;;;38.85;24.35;;;;;;;9.68;93.15;102948.03;5054818;28;20040;-79
2021/12/15 12:19:44;;;;;;;39.80;24.33;;;;;;;9.70;93.38;102947.06;5044582;28;20052;-79
2021/12/15 12:22:11;;;;;;;45.25;28.05;;;;;;;9.71;93.25;102940.78;5045172;28;20053;-80
2021/12/15 12:24:37;;;;;;;40.13;25.33;;;;;;;9.72;93.01;102950.59;5045924;28;20033;-79
2021/12/15 12:27:04;;;;;;;37.72;24.90;;;;;;;9.74;92.99;102947.84;5044918;28;20040;-79
2021/12/15 12:29:30;;;;;;;39.42;27.00;;;;;;;9.74;92.86;102947.84;5050093;28;20036;-79
2021/12/15 12:31:55;;;;;;;44.20;25.20;;;;;;;9.74;92.80;102940.66;5045839;28;20095;-79
2021/12/15 12:34:20;;;;;;;41.55;26.00;;;;;;;9.77;93.07;102948.59;5041211;28;20032;-79
2021/12/15 12:36:48;;;;;;;40.53;24.70;;;;;;;9.78;92.13;102936.94;5055259;28;20032;-79
2021/12/15 12:39:14;;;;;;;38.70;23.70;;;;;;;9.78;92.51;102939.63;5045194;28;20465;-79
2021/12/15 12:41:43;;;;;;;38.42;25.20;;;;;;;9.80;92.43;102937.75;5044798;28;20131;-79
2021/12/15 12:44:11;;;;;;;37.22;22.85;;;;;;;9.83;93.00;102930.53;5056040;28;20032;-79